createdAt,value
2017-10-11T16:14:54.146Z,85.7
2017-10-11T16:15:55.605Z,85.9
2017-10-11T16:16:57.114Z,86.5
2017-10-11T16:17:58.642Z,87.1
2017-10-11T16:19:00.172Z,87.9
2017-10-11T16:20:01.561Z,88.3
2017-10-11T16:21:03.020Z,88.2
2017-10-11T16:22:04.484Z,87.9
2017-10-11T16:23:06.011Z,89.4
2017-10-11T16:24:07.426Z,88.9
2017-10-11T16:25:08.807Z,89.8
2017-10-11T16:26:10.292Z,90.7
2017-10-11T16:27:11.811Z,90.7
2017-10-11T16:28:13.195Z,90.9
2017-10-11T16:29:14.610Z,91.4
2017-10-11T16:30:16.008Z,91.7
2017-10-11T16:31:19.418Z,91.3
2017-10-11T16:32:20.816Z,91.5
2017-10-11T16:33:22.211Z,91.8
2017-10-11T16:34:23.580Z,91.8
2017-10-11T16:35:25.027Z,92.1
2017-10-11T16:36:26.402Z,92.1
2017-10-11T16:37:27.872Z,92.3
2017-10-11T16:38:29.333Z,92.7
2017-10-11T16:39:30.780Z,92.7
2017-10-11T16:40:32.196Z,92.4
2017-10-11T16:41:33.597Z,92.9
2017-10-11T16:42:35.022Z,93.5
2017-10-11T16:43:38.405Z,92.7
2017-10-11T16:44:39.897Z,93.3
2017-10-11T16:45:41.285Z,93.0
2017-10-11T16:46:42.674Z,92.7
2017-10-11T16:47:44.077Z,93.3
2017-10-11T16:48:45.487Z,93.0
2017-10-11T16:49:46.959Z,93.3
2017-10-11T16:50:48.435Z,93.5
2017-10-11T16:51:49.823Z,94.0
2017-10-11T16:52:51.213Z,93.9
2017-10-11T16:53:52.599Z,94.9
2017-10-11T16:54:54.075Z,93.4
2017-10-11T16:55:55.444Z,94.2
2017-10-11T16:56:56.823Z,94.2
2017-10-11T16:57:58.207Z,94.5
2017-10-11T16:58:59.598Z,94.5
2017-10-11T17:00:00.994Z,94.5
2017-10-11T17:01:02.360Z,94.6
2017-10-11T17:02:03.769Z,94.3
2017-10-11T17:03:05.161Z,94.2
2017-10-11T17:04:06.582Z,95.9
2017-10-11T17:05:07.970Z,96.0
2017-10-11T17:06:09.393Z,96.2
2017-10-11T17:07:10.913Z,96.0
2017-10-11T17:08:12.304Z,97.0
2017-10-11T17:09:13.706Z,96.4
2017-10-11T17:10:15.093Z,97.0
2017-10-11T17:11:16.490Z,96.4
2017-10-11T17:12:17.873Z,96.1
2017-10-11T17:13:19.257Z,95.6
2017-10-11T17:14:20.665Z,96.1
2017-10-11T17:15:22.069Z,96.1
2017-10-11T17:16:23.471Z,95.3
2017-10-11T17:17:24.864Z,95.9
2017-10-11T17:18:26.240Z,97.0
2017-10-11T17:19:27.616Z,97.4
2017-10-11T17:20:29.040Z,97.7
2017-10-11T17:21:30.412Z,97.4
2017-10-11T17:22:31.868Z,96.9
2017-10-11T17:23:33.325Z,97.3
2017-10-11T17:24:34.794Z,98.9
2017-10-11T17:25:36.262Z,98.9
2017-10-11T17:26:37.637Z,99.2
2017-10-11T17:27:39.013Z,99.5
2017-10-11T17:28:40.394Z,98.8
2017-10-11T17:29:41.834Z,98.0
2017-10-11T17:30:43.206Z,98.2
2017-10-11T17:31:44.618Z,98.4
2017-10-11T17:32:46.010Z,99.5
2017-10-11T17:33:47.387Z,100.0
2017-10-11T17:34:48.779Z,99.7
2017-10-11T17:35:50.171Z,99.4
2017-10-11T17:36:51.565Z,98.9
2017-10-11T17:37:52.919Z,98.6
2017-10-11T17:38:54.341Z,100.0
2017-10-11T17:39:55.742Z,100.0
2017-10-11T17:40:57.124Z,100.0
2017-10-11T17:41:58.517Z,100.0
2017-10-11T17:42:59.941Z,100.0
2017-10-11T17:44:01.306Z,100.0
2017-10-11T17:45:02.740Z,100.0
2017-10-11T17:46:04.117Z,100.0
2017-10-11T17:47:05.538Z,100.0
2017-10-11T17:48:06.902Z,100.0
2017-10-11T17:49:08.299Z,100.0
2017-10-11T17:50:09.713Z,100.0
2017-10-11T17:51:11.084Z,100.0
2017-10-11T17:52:12.506Z,100.0
2017-10-11T17:53:13.904Z,100.0
2017-10-11T17:54:15.310Z,100.0
2017-10-11T17:55:16.689Z,100.0
2017-10-11T17:56:18.088Z,100.0
2017-10-11T17:57:19.495Z,100.0
2017-10-11T17:58:20.862Z,100.0
2017-10-11T17:59:22.330Z,100.0
2017-10-11T18:00:23.792Z,100.0
2017-10-11T18:01:25.192Z,100.0
2017-10-11T18:02:26.644Z,100.0
2017-10-11T18:03:28.005Z,99.9
2017-10-11T18:04:29.436Z,99.9
2017-10-11T18:05:30.828Z,99.6
2017-10-11T18:06:32.288Z,99.6
2017-10-11T18:07:33.684Z,98.7
2017-10-11T18:08:35.049Z,96.7
2017-10-11T18:09:36.442Z,94.4
2017-10-11T18:10:37.805Z,92.4
2017-10-11T18:11:39.361Z,92.6
2017-10-11T18:12:40.729Z,93.7
2017-10-11T18:13:42.130Z,93.4
2017-10-11T18:14:43.513Z,93.6
2017-10-11T18:15:47.030Z,94.2
2017-10-11T18:16:48.448Z,94.6
2017-10-11T18:17:49.856Z,95.6
2017-10-11T18:18:51.362Z,96.2
2017-10-11T18:19:53.741Z,96.6
2017-10-11T18:20:55.107Z,97.8
2017-10-11T18:21:56.492Z,97.1
2017-10-11T18:22:57.888Z,97.9
2017-10-11T18:23:59.280Z,97.9
2017-10-11T18:25:00.736Z,98.6
2017-10-11T18:26:02.134Z,99.0
2017-10-11T18:27:03.552Z,99.4
2017-10-11T18:28:04.929Z,99.1
2017-10-11T18:29:06.412Z,98.9
2017-10-11T18:30:07.819Z,98.8
2017-10-11T18:31:09.236Z,99.1
2017-10-11T18:32:11.608Z,98.9
2017-10-11T18:33:12.969Z,99.2
2017-10-11T18:34:14.364Z,99.7
2017-10-11T18:35:15.835Z,100.0
2017-10-11T18:36:17.217Z,100.0
2017-10-11T18:37:18.638Z,100.0
2017-10-11T18:38:20.075Z,100.0
2017-10-11T18:39:21.433Z,100.0
2017-10-11T18:40:22.823Z,100.0
2017-10-11T18:41:24.202Z,100.0
2017-10-11T18:42:25.601Z,100.0
2017-10-11T18:43:26.986Z,100.0
2017-10-11T18:44:28.435Z,100.0
2017-10-11T18:45:29.841Z,100.0
2017-10-11T18:46:31.271Z,100.0
2017-10-11T18:47:32.640Z,100.0
2017-10-11T18:48:34.127Z,100.0
2017-10-11T18:49:35.487Z,100.0
2017-10-11T18:50:36.994Z,100.0
2017-10-11T18:51:38.379Z,100.0
2017-10-11T18:52:40.755Z,100.0
2017-10-11T18:53:42.118Z,100.0
2017-10-11T18:54:43.509Z,100.0
2017-10-11T18:55:44.997Z,100.0
2017-10-11T18:56:46.367Z,100.0
2017-10-11T18:57:47.858Z,100.0
2017-10-11T18:58:49.242Z,100.0
2017-10-11T18:59:50.623Z,100.0
2017-10-11T19:00:52.016Z,100.0
2017-10-11T19:01:53.405Z,100.0
2017-10-11T19:02:54.846Z,100.0
2017-10-11T19:03:56.222Z,100.0
2017-10-11T19:04:57.704Z,100.0
2017-10-11T19:05:59.090Z,100.0
2017-10-11T19:07:00.563Z,100.0
2017-10-11T19:08:01.931Z,100.0
2017-10-11T19:09:03.336Z,100.0
2017-10-11T19:10:04.700Z,100.0
2017-10-11T19:11:06.099Z,100.0
2017-10-11T19:12:07.530Z,100.0
2017-10-11T19:13:08.895Z,100.0
2017-10-11T19:14:10.266Z,100.0
2017-10-11T19:15:11.660Z,100.0
2017-10-11T19:16:13.059Z,100.0
2017-10-11T19:17:14.428Z,100.0
2017-10-11T19:18:15.795Z,100.0
2017-10-11T19:19:17.182Z,100.0
2017-10-11T19:20:18.574Z,100.0
2017-10-11T19:21:19.971Z,100.0
2017-10-11T19:22:21.368Z,100.0
2017-10-11T19:23:22.773Z,100.0
2017-10-11T19:24:24.173Z,100.0
2017-10-11T19:25:25.575Z,100.0
2017-10-11T19:26:26.983Z,100.0
2017-10-11T19:27:28.374Z,100.0
2017-10-11T19:28:29.785Z,100.0
2017-10-11T19:29:31.165Z,100.0
2017-10-11T19:30:32.581Z,100.0
2017-10-11T19:31:34.033Z,100.0
2017-10-11T19:32:35.466Z,100.0
2017-10-11T19:33:36.854Z,100.0
2017-10-11T19:34:38.259Z,100.0
2017-10-11T19:35:39.638Z,100.0
2017-10-11T19:36:41.038Z,100.0
2017-10-11T19:37:42.434Z,100.0
2017-10-11T19:38:43.810Z,100.0
2017-10-11T19:39:45.192Z,100.0
2017-10-11T19:40:46.554Z,100.0
2017-10-11T19:41:47.970Z,100.0
2017-10-11T19:42:49.368Z,100.0
2017-10-11T19:43:50.749Z,100.0
2017-10-11T19:44:52.141Z,100.0
2017-10-11T19:45:53.524Z,100.0
2017-10-11T19:46:54.964Z,100.0
2017-10-11T19:47:56.331Z,100.0
2017-10-11T19:48:57.823Z,100.0
2017-10-11T19:49:59.228Z,100.0
2017-10-11T19:51:00.610Z,100.0
2017-10-11T19:52:02.007Z,100.0
2017-10-11T19:53:03.373Z,100.0
2017-10-11T19:54:04.804Z,100.0
2017-10-11T19:55:06.160Z,100.0
2017-10-11T19:56:07.579Z,100.0
2017-10-11T19:57:08.954Z,100.0
2017-10-11T19:58:10.339Z,100.0
2017-10-11T19:59:11.732Z,100.0
2017-10-11T20:00:13.135Z,100.0
2017-10-11T20:01:15.488Z,100.0
2017-10-11T20:02:16.882Z,100.0
2017-10-11T20:03:18.255Z,100.0
2017-10-11T20:04:19.724Z,100.0
2017-10-11T20:05:21.124Z,100.0
2017-10-11T20:06:22.495Z,100.0
2017-10-11T20:07:23.887Z,100.0
2017-10-11T20:08:25.275Z,100.0
2017-10-11T20:09:28.658Z,100.0
2017-10-11T20:10:30.057Z,100.0
2017-10-11T20:11:31.478Z,100.0
2017-10-11T20:12:32.839Z,100.0
2017-10-11T20:13:34.279Z,100.0
2017-10-11T20:14:35.645Z,100.0
2017-10-11T20:15:37.157Z,100.0
2017-10-11T20:16:38.527Z,100.0
2017-10-11T20:17:39.908Z,100.0
2017-10-11T20:18:41.358Z,100.0
2017-10-11T20:19:42.730Z,100.0
2017-10-11T20:20:44.090Z,100.0
2017-10-11T20:21:45.485Z,100.0
2017-10-11T20:22:46.850Z,100.0
2017-10-11T20:23:48.258Z,100.0
2017-10-11T20:24:49.647Z,100.0
2017-10-11T20:25:51.038Z,100.0
2017-10-11T20:26:52.414Z,100.0
2017-10-11T20:27:53.788Z,100.0
2017-10-11T20:28:55.159Z,100.0
2017-10-11T20:29:56.536Z,100.0
2017-10-11T20:30:58.024Z,100.0
2017-10-11T20:31:59.415Z,100.0
2017-10-11T20:33:00.814Z,100.0
2017-10-11T20:34:02.181Z,100.0
2017-10-11T20:35:03.595Z,100.0
2017-10-11T20:36:04.975Z,100.0
2017-10-11T20:37:06.341Z,100.0
2017-10-11T20:38:07.734Z,100.0
2017-10-11T20:39:09.097Z,100.0
2017-10-11T20:40:10.491Z,100.0
2017-10-11T20:41:11.999Z,100.0
2017-10-11T20:42:13.400Z,100.0
2017-10-11T20:43:14.867Z,100.0
2017-10-11T20:44:17.262Z,100.0
2017-10-11T20:45:18.660Z,100.0
2017-10-11T20:46:20.107Z,100.0
2017-10-11T20:47:21.524Z,100.0
2017-10-11T20:48:22.915Z,100.0
2017-10-11T20:49:24.307Z,100.0
2017-10-11T20:50:25.702Z,100.0
2017-10-11T20:51:27.085Z,100.0
2017-10-11T20:52:28.530Z,100.0
2017-10-11T20:53:29.966Z,100.0
2017-10-11T20:54:31.405Z,100.0
2017-10-11T20:55:32.870Z,100.0
2017-10-11T20:56:34.269Z,100.0
2017-10-11T20:57:35.659Z,100.0
2017-10-11T20:58:37.047Z,100.0
2017-10-11T20:59:38.453Z,100.0
2017-10-11T21:00:39.946Z,100.0
2017-10-11T21:01:41.345Z,100.0
2017-10-11T21:02:42.716Z,100.0
2017-10-11T21:03:44.102Z,100.0
2017-10-11T21:04:45.518Z,100.0
2017-10-11T21:05:46.907Z,100.0
2017-10-11T21:06:48.309Z,100.0
2017-10-11T21:07:49.671Z,100.0
2017-10-11T21:08:51.059Z,100.0
2017-10-11T21:09:52.464Z,100.0
2017-10-11T21:10:53.849Z,100.0
2017-10-11T21:11:55.225Z,100.0
2017-10-11T21:12:56.620Z,100.0
2017-10-11T21:13:58.007Z,100.0
2017-10-11T21:14:59.408Z,100.0
2017-10-11T21:16:00.832Z,100.0
2017-10-11T21:17:02.218Z,100.0
2017-10-11T21:18:03.661Z,100.0
2017-10-11T21:19:05.088Z,100.0
2017-10-11T21:20:06.511Z,100.0
2017-10-11T21:21:07.934Z,100.0
2017-10-11T21:22:09.356Z,100.0
2017-10-11T21:23:10.753Z,100.0
2017-10-11T21:24:12.143Z,100.0
2017-10-11T21:25:13.600Z,100.0
2017-10-11T21:26:14.987Z,100.0
2017-10-11T21:27:16.429Z,100.0
2017-10-11T21:28:17.805Z,100.0
2017-10-11T21:29:19.205Z,100.0
2017-10-11T21:30:20.683Z,100.0
2017-10-11T21:31:22.059Z,100.0
2017-10-11T21:32:23.440Z,100.0
2017-10-11T21:33:24.816Z,100.0
2017-10-11T21:34:26.233Z,100.0
2017-10-11T21:35:27.668Z,100.0
2017-10-11T21:36:29.041Z,100.0
2017-10-11T21:37:30.468Z,100.0
2017-10-11T21:38:31.868Z,100.0
2017-10-11T21:39:33.247Z,100.0
2017-10-11T21:40:34.629Z,100.0
2017-10-11T21:41:36.022Z,100.0
2017-10-11T21:42:37.386Z,100.0
2017-10-11T21:43:38.798Z,100.0
2017-10-11T21:44:40.183Z,100.0
2017-10-11T21:45:41.683Z,100.0
2017-10-11T21:46:43.045Z,100.0
2017-10-11T21:47:44.444Z,100.0
2017-10-11T21:48:45.834Z,100.0
2017-10-11T21:49:47.228Z,100.0
2017-10-11T21:50:48.590Z,100.0
2017-10-11T21:51:49.995Z,100.0
2017-10-11T21:52:51.396Z,100.0
2017-10-11T21:53:52.821Z,100.0
2017-10-11T21:54:54.186Z,100.0
2017-10-11T21:55:55.668Z,100.0
2017-10-11T21:56:57.074Z,100.0
2017-10-11T21:57:58.443Z,100.0
2017-10-11T21:58:59.847Z,100.0
2017-10-11T22:00:01.323Z,100.0
2017-10-11T22:01:02.707Z,100.0
2017-10-11T22:02:04.230Z,100.0
2017-10-11T22:03:05.611Z,100.0
2017-10-11T22:04:07.077Z,100.0
2017-10-11T22:05:08.436Z,100.0
2017-10-11T22:06:09.886Z,100.0
2017-10-11T22:07:11.300Z,100.0
2017-10-11T22:08:12.776Z,100.0
2017-10-11T22:09:14.184Z,100.0
2017-10-11T22:10:15.670Z,100.0
2017-10-11T22:11:17.118Z,100.0
2017-10-11T22:12:18.589Z,100.0
2017-10-11T22:13:20.027Z,100.0
2017-10-11T22:14:21.491Z,100.0
2017-10-11T22:15:22.920Z,100.0
2017-10-11T22:16:24.371Z,100.0
2017-10-11T22:17:25.767Z,100.0
2017-10-11T22:18:27.196Z,100.0
2017-10-11T22:19:28.667Z,100.0
2017-10-11T22:20:30.074Z,100.0
2017-10-11T22:21:31.472Z,100.0
2017-10-11T22:22:33.099Z,100.0
2017-10-11T22:23:34.608Z,100.0
2017-10-11T22:24:36.098Z,100.0
2017-10-11T22:25:37.479Z,100.0
2017-10-11T22:26:39.078Z,100.0
2017-10-11T22:27:40.470Z,100.0
2017-10-11T22:28:41.878Z,100.0
2017-10-11T22:29:43.273Z,100.0
2017-10-11T22:30:44.725Z,100.0
2017-10-11T22:31:46.105Z,100.0
2017-10-11T22:32:47.548Z,100.0
2017-10-11T22:33:48.973Z,100.0
2017-10-11T22:34:50.383Z,100.0
2017-10-11T22:35:51.781Z,100.0
2017-10-11T22:36:53.166Z,100.0
2017-10-11T22:37:54.553Z,100.0
2017-10-11T22:38:56.004Z,100.0
2017-10-11T22:39:57.434Z,100.0
2017-10-11T22:40:59.886Z,100.0
2017-10-11T22:42:01.278Z,100.0
2017-10-11T22:43:02.697Z,100.0
2017-10-11T22:44:04.115Z,100.0
2017-10-11T22:45:05.496Z,100.0
2017-10-11T22:46:06.893Z,100.0
2017-10-11T22:47:08.311Z,100.0
2017-10-11T22:48:09.730Z,100.0
2017-10-11T22:49:11.176Z,100.0
2017-10-11T22:50:12.559Z,100.0
2017-10-11T22:51:14.971Z,100.0
2017-10-11T22:52:16.338Z,100.0
2017-10-11T22:53:17.795Z,100.0
2017-10-11T22:54:19.186Z,100.0
2017-10-11T22:55:21.592Z,100.0
2017-10-11T22:56:23.174Z,100.0
2017-10-11T22:57:24.552Z,100.0
2017-10-11T22:58:25.957Z,100.0
2017-10-11T22:59:27.346Z,100.0
2017-10-11T23:00:28.751Z,100.0
2017-10-11T23:01:30.189Z,100.0
2017-10-11T23:02:31.551Z,100.0
2017-10-11T23:03:33.947Z,100.0
2017-10-11T23:04:35.330Z,100.0
2017-10-11T23:05:36.752Z,100.0
2017-10-11T23:06:38.157Z,100.0
2017-10-11T23:07:39.551Z,100.0
2017-10-11T23:08:40.945Z,100.0
2017-10-11T23:09:42.424Z,100.0
2017-10-11T23:10:43.851Z,100.0
2017-10-11T23:11:46.228Z,100.0
2017-10-11T23:12:47.653Z,100.0
2017-10-11T23:13:49.045Z,100.0
2017-10-11T23:14:50.509Z,100.0
2017-10-11T23:15:51.930Z,100.0
2017-10-11T23:16:53.311Z,100.0
2017-10-11T23:17:54.710Z,99.4
2017-10-11T23:18:56.097Z,100.0
2017-10-11T23:19:57.503Z,100.0
2017-10-11T23:20:58.879Z,99.7
2017-10-11T23:22:00.313Z,100.0
2017-10-11T23:23:01.663Z,100.0
2017-10-11T23:24:03.045Z,100.0
2017-10-11T23:25:04.451Z,100.0
2017-10-11T23:26:05.883Z,99.5
2017-10-11T23:27:07.311Z,99.6
2017-10-11T23:28:09.693Z,99.7
2017-10-11T23:29:11.110Z,98.9
2017-10-11T23:30:12.489Z,97.1
2017-10-11T23:31:13.927Z,96.4
2017-10-11T23:32:15.325Z,96.5
2017-10-11T23:33:16.696Z,97.2
2017-10-11T23:34:18.101Z,97.3
2017-10-11T23:35:19.537Z,97.8
2017-10-11T23:36:20.931Z,97.9
2017-10-11T23:37:22.328Z,98.2
2017-10-11T23:38:24.835Z,98.8
2017-10-11T23:39:26.223Z,97.9
2017-10-11T23:40:27.586Z,97.8
2017-10-11T23:41:29.026Z,98.2
2017-10-11T23:42:30.439Z,98.7
2017-10-11T23:43:31.828Z,97.7
2017-10-11T23:44:33.213Z,97.9
2017-10-11T23:45:34.611Z,97.3
2017-10-11T23:46:35.998Z,97.2
2017-10-11T23:47:37.421Z,97.8
2017-10-11T23:48:38.804Z,97.8
2017-10-11T23:49:40.221Z,96.8
2017-10-11T23:50:41.583Z,96.7
2017-10-11T23:51:42.964Z,96.5
2017-10-11T23:52:44.378Z,96.7
2017-10-11T23:53:45.749Z,95.6
2017-10-11T23:54:47.131Z,96.1
2017-10-11T23:55:48.522Z,95.3
2017-10-11T23:56:49.884Z,95.6
2017-10-11T23:57:51.256Z,94.2
2017-10-11T23:58:52.675Z,94.2
2017-10-11T23:59:54.049Z,93.8
